Ariel, WA

2:50 AM PST on February 01, 2015 (GMT -0800)
West Yale Valley | Change Station
CLOSE
Current Station
Personal Weather Station
Location: Ariel, WA
Elevation: 455 ft
Nearby Weather Stations

Elev 455 ft 46.00 °N, 122.40 °W | Updated 59 seconds ago

Mostly Cloudy
Mostly Cloudy
46.0 °F
Feels Like 43 °F
N
6.0
Wind Variable Wind from SE
Gusts 17.0 mph

Today
High -- | Low -- °F
--% Chance of Precip.
Yesterday
High -- | Low -- °F
Precip. -- in
7:32 AM 5:15 PM
Waxing Gibbous, 94% visible
Pressure 30.16 in
Visibility 10.0 miles
Clouds Few 12000 ft
Windchill 43 °F
Dew Point 33 °F
Humidity 61%
Rainfall 0.00 in
Snow Depth Not available.
UV 0 out of 12
Pollen 3.20 out of 12
Air Quality Not available.
Flu Activity Not available.
METAR KKLS 011035Z 15005KT 10SM FEW120 05/01 A3016 RMK AO1

More Conditions Fewer Conditions

Pressure 30.16 in
Visibility 10.0 miles
Clouds Few 12000 ft
Windchill 43 °F
Dew Point 33 °F
Humidity 61%
Rainfall 0.00 in
Snow Depth Not available.
UV 0 out of 12
Pollen 3.20 out of 12
Air Quality Not available.
Flu Activity Not available.
METAR KKLS 011035Z 15005KT 10SM FEW120 05/01 A3016 RMK AO1

More Conditions Fewer Conditions

10-Day Weather Forecast

Almanac

Astronomy

Feb. 01, 2015 Rise Set
Actual Time
Civil Twilight
Nautical Twilight
Astronomical Twilight
Moon
Length of Visible Light
Length of Day
Tomorrow will be .
, % of the Moon is Illuminated

Today's Extremes

State Highs State Lows

Community

WunderPhotos

Upload Photos

1,792,343 photos uploaded!

WunderBlogs® & News

Nearby

Air Quality

  Air Quality AQ Index Pollutant
Not available.

Snow Depth

Station Depth Elevation

Earthquake Activity

City Distance Mag. Time & Date
Minimum magnitude displayed is 2.5.

Coastal Water Temperatures

Place Temperature

Nearby Weather Stations